Time;durP1;ratioP1;P1;durP2;ratioP2;P2;SDS_P1;SDS_P2;PMS_P1;PMS_P2;Temp;Humidity;BMP_temperature;BMP_pressure;BME280_temperature;BME280_humidity;BME280_pressure;Samples;Min_cycle;Max_cycle;Signal;HPM_P1;HPM_P2
2024/04/10 05:01:32;;;;;;;6.07;2.70;;;;;;;;;;5879924;21;20567;-69
2024/04/10 05:06:42;;;;;;;9.47;2.50;;;;;;;;;;5276628;27;20566;-69
2024/04/10 05:09:11;;;;;;;5.40;2.63;;;;;;;;;;5276337;27;20451;-69
2024/04/10 05:11:37;;;;;;;4.20;2.40;;;;;;;;;;5276041;27;20510;-69
2024/04/10 05:14:03;;;;;;;12.00;1.93;;;;;;;;;;5276413;27;20450;-69
2024/04/10 05:16:29;;;;;;;5.27;2.57;;;;;;;;;;5274390;27;20546;-70
2024/04/10 05:18:55;;;;;;;12.20;2.00;;;;;;;;;;5269742;27;20478;-70
2024/04/10 05:21:22;;;;;;;10.23;2.63;;;;;;;;;;5276372;27;20521;-70
2024/04/10 05:23:49;;;;;;;5.13;2.30;;;;;;;;;;5273986;27;21052;-71
2024/04/10 05:26:15;;;;;;;6.43;2.20;;;;;;;;;;5246628;27;20456;-72
2024/04/10 05:28:42;;;;;;;12.90;2.23;;;;;;;;;;5242212;27;21066;-74
2024/04/10 05:31:09;;;;;;;7.43;1.93;;;;;;;;;;5242217;27;20850;-74
2024/04/10 05:33:35;;;;;;;5.80;2.03;;;;;;;;;;5250733;27;20460;-74
2024/04/10 05:36:04;;;;;;;10.97;2.63;;;;;;;;;;5265401;27;20466;-74
2024/04/10 05:38:31;;;;;;;6.33;2.80;;;;;;;;;;5275107;27;21064;-74
2024/04/10 05:40:57;;;;;;;5.57;2.20;;;;;;;;;;5275323;27;20511;-74
2024/04/10 05:43:23;;;;;;;5.97;2.50;;;;;;;;;;5273602;27;20576;-74
2024/04/10 05:45:55;;;;;;;5.50;2.33;;;;;;;;;;5275707;27;20462;-73
2024/04/10 05:48:21;;;;;;;17.50;2.30;;;;;;;;;;5273777;27;20526;-73
2024/04/10 05:50:47;;;;;;;8.03;2.27;;;;;;;;;;5266883;27;21022;-73
2024/04/10 05:53:13;;;;;;;6.87;2.13;;;;;;;;;;5264155;27;20462;-74
2024/04/10 05:55:39;;;;;;;7.70;2.67;;;;;;;;;;5275738;27;20520;-73
2024/04/10 05:58:05;;;;;;;8.77;2.70;;;;;;;;;;5268216;27;20915;-74
2024/04/10 06:00:32;;;;;;;10.50;2.97;;;;;;;;;;5258103;27;20887;-71
2024/04/10 06:02:58;;;;;;;8.37;2.63;;;;;;;;;;5275694;27;20544;-72
2024/04/10 06:05:27;;;;;;;8.63;2.10;;;;;;;;;;5275255;27;20442;-72
2024/04/10 06:07:53;;;;;;;10.53;2.47;;;;;;;;;;5255096;27;20472;-71
2024/04/10 06:10:19;;;;;;;9.67;2.40;;;;;;;;;;5241529;27;20451;-70
2024/04/10 06:12:49;;;;;;;15.10;2.93;;;;;;;;;;5244052;27;20551;-70
2024/04/10 06:15:16;;;;;;;12.93;2.83;;;;;;;;;;5241069;27;20451;-70
2024/04/10 06:17:42;;;;;;;6.17;2.23;;;;;;;;;;5241037;27;20518;-72
2024/04/10 06:20:11;;;;;;;5.03;2.17;;;;;;;;;;5249699;27;21119;-71
2024/04/10 06:22:37;;;;;;;15.43;2.67;;;;;;;;;;5285926;27;20458;-71
2024/04/10 06:25:03;;;;;;;8.33;2.07;;;;;;;;;;5267949;27;20439;-72
2024/04/10 06:27:29;;;;;;;12.67;2.67;;;;;;;;;;5251699;27;20455;-72
2024/04/10 06:29:55;;;;;;;11.83;2.80;;;;;;;;;;5258909;27;20594;-71
2024/04/10 06:32:21;;;;;;;12.93;2.57;;;;;;;;;;5249241;27;20498;-71
2024/04/10 06:34:47;;;;;;;9.53;2.70;;;;;;;;;;5247085;27;20963;-70
2024/04/10 06:37:15;;;;;;;6.60;2.83;;;;;;;;;;5244705;27;20549;-71
2024/04/10 06:39:41;;;;;;;15.23;3.23;;;;;;;;;;5243950;27;20504;-70
2024/04/10 06:42:07;;;;;;;15.67;3.37;;;;;;;;;;5255160;27;20462;-71
2024/04/10 06:44:33;;;;;;;6.37;1.87;;;;;;;;;;5262852;27;21030;-71
2024/04/10 06:46:59;;;;;;;9.80;2.40;;;;;;;;;;5267040;27;20977;-71
2024/04/10 06:49:28;;;;;;;7.57;2.97;;;;;;;;;;5246697;27;20467;-72
2024/04/10 06:51:55;;;;;;;21.40;3.50;;;;;;;;;;5267043;27;20884;-72
2024/04/10 06:54:21;;;;;;;8.40;2.63;;;;;;;;;;5277322;27;20458;-71
2024/04/10 06:56:47;;;;;;;12.70;3.00;;;;;;;;;;5275944;27;20465;-72
2024/04/10 06:59:13;;;;;;;15.37;2.33;;;;;;;;;;5278074;27;21186;-71
2024/04/10 07:01:40;;;;;;;18.23;3.07;;;;;;;;;;5269103;27;20469;-71
2024/04/10 07:04:06;;;;;;;16.40;4.10;;;;;;;;;;5268533;27;21049;-72
2024/04/10 07:06:32;;;;;;;11.03;3.13;;;;;;;;;;5279467;27;20458;-71
2024/04/10 07:08:58;;;;;;;7.83;2.07;;;;;;;;;;5246328;27;20543;-72
2024/04/10 07:11:25;;;;;;;12.87;2.80;;;;;;;;;;5268167;27;20588;-71
2024/04/10 07:13:52;;;;;;;14.50;3.03;;;;;;;;;;5275189;27;20527;-71
2024/04/10 07:16:26;;;;;;;10.93;2.50;;;;;;;;;;5278138;27;20787;-72
2024/04/10 07:18:52;;;;;;;12.13;2.90;;;;;;;;;;5273390;27;20533;-72
2024/04/10 07:21:18;;;;;;;7.50;2.10;;;;;;;;;;5279754;27;20892;-72
2024/04/10 07:23:47;;;;;;;17.30;3.07;;;;;;;;;;5268582;27;20547;-70
2024/04/10 07:38:28;;;;;;;10.70;3.27;;;;;;;;;;5282217;27;20556;-73
2024/04/10 07:40:57;;;;;;;11.23;3.40;;;;;;;;;;5288635;27;20490;-74
2024/04/10 07:43:23;;;;;;;13.17;3.30;;;;;;;;;;5278129;27;20582;-74
2024/04/10 07:45:49;;;;;;;14.47;3.40;;;;;;;;;;5296617;21;20514;-75
2024/04/10 07:48:17;;;;;;;9.90;2.70;;;;;;;;;;5243637;27;20463;-74
2024/04/10 07:50:43;;;;;;;11.43;2.97;;;;;;;;;;5269696;27;20583;-74
2024/04/10 07:53:09;;;;;;;15.93;3.63;;;;;;;;;;5244976;27;20500;-74
2024/04/10 07:55:35;;;;;;;16.13;3.17;;;;;;;;;;5242774;27;20460;-73
2024/04/10 07:58:01;;;;;;;8.73;2.63;;;;;;;;;;5251728;27;20538;-72
2024/04/10 08:00:27;;;;;;;14.00;3.50;;;;;;;;;;5245452;27;20503;-72
2024/04/10 08:02:53;;;;;;;9.00;3.20;;;;;;;;;;5244717;27;21066;-74
2024/04/10 08:05:19;;;;;;;21.53;3.40;;;;;;;;;;5244857;27;20460;-73
2024/04/10 08:07:45;;;;;;;16.83;3.30;;;;;;;;;;5245970;27;20479;-75
2024/04/10 08:10:12;;;;;;;9.73;2.90;;;;;;;;;;5247847;27;21103;-75
2024/04/10 08:12:38;;;;;;;10.43;2.60;;;;;;;;;;5276373;27;20499;-74
2024/04/10 08:15:08;;;;;;;9.87;2.97;;;;;;;;;;5245856;27;20475;-75
2024/04/10 08:17:38;;;;;;;16.23;3.33;;;;;;;;;;5253112;27;20533;-76
2024/04/10 08:20:05;;;;;;;15.27;3.60;;;;;;;;;;5244979;27;20464;-74
2024/04/10 08:22:31;;;;;;;10.90;3.30;;;;;;;;;;5243732;27;21042;-76
2024/04/10 08:24:57;;;;;;;15.80;3.43;;;;;;;;;;5244955;27;20521;-77
2024/04/10 08:27:24;;;;;;;26.83;3.90;;;;;;;;;;5244136;27;20511;-77
2024/04/10 08:29:50;;;;;;;16.37;3.40;;;;;;;;;;5246095;27;20448;-75
2024/04/10 08:32:15;;;;;;;6.70;2.60;;;;;;;;;;5251703;27;20537;-73
2024/04/10 08:34:41;;;;;;;13.63;3.53;;;;;;;;;;5249294;27;20472;-74
2024/04/10 08:37:07;;;;;;;11.20;3.67;;;;;;;;;;5240960;27;20623;-73
2024/04/10 08:39:33;;;;;;;10.63;3.23;;;;;;;;;;5243292;27;20555;-74
2024/04/10 08:41:59;;;;;;;15.27;3.67;;;;;;;;;;5243658;27;20479;-75
2024/04/10 08:44:28;;;;;;;10.73;4.30;;;;;;;;;;5243572;27;20815;-74
2024/04/10 08:46:55;;;;;;;17.83;3.87;;;;;;;;;;5243502;27;20635;-76
2024/04/10 08:49:24;;;;;;;7.97;2.97;;;;;;;;;;5242313;27;21081;-75
2024/04/10 08:51:51;;;;;;;10.07;3.30;;;;;;;;;;5252494;27;20504;-76
2024/04/10 08:54:18;;;;;;;8.50;3.47;;;;;;;;;;5256902;27;20537;-75
2024/04/10 08:56:44;;;;;;;17.70;4.10;;;;;;;;;;5261142;27;20503;-77
2024/04/10 08:59:10;;;;;;;15.03;4.20;;;;;;;;;;5263964;27;21089;-75
2024/04/10 09:01:37;;;;;;;10.73;3.80;;;;;;;;;;5262139;27;20471;-76
2024/04/10 09:04:11;;;;;;;8.73;3.83;;;;;;;;;;5257698;27;20504;-76
2024/04/10 09:06:37;;;;;;;7.90;3.50;;;;;;;;;;5251452;27;20464;-74
2024/04/10 09:09:07;;;;;;;8.27;3.50;;;;;;;;;;5262604;27;20464;-77
2024/04/10 09:11:33;;;;;;;11.40;3.30;;;;;;;;;;5256873;27;20440;-76
2024/04/10 09:13:59;;;;;;;8.23;3.10;;;;;;;;;;5255418;27;20976;-75
2024/04/10 09:16:25;;;;;;;8.00;3.10;;;;;;;;;;5250156;27;20627;-73
2024/04/10 09:18:51;;;;;;;12.80;2.97;;;;;;;;;;5255975;27;20447;-76
2024/04/10 09:21:18;;;;;;;8.53;2.87;;;;;;;;;;5248231;27;20460;-76
2024/04/10 09:23:44;;;;;;;8.57;3.00;;;;;;;;;;5252935;27;20598;-77
2024/04/10 09:26:15;;;;;;;9.67;3.23;;;;;;;;;;5246219;27;20467;-74
2024/04/10 09:28:41;;;;;;;8.77;3.07;;;;;;;;;;5272399;27;20510;-74
2024/04/10 09:31:07;;;;;;;16.93;3.30;;;;;;;;;;5246981;27;20455;-74
2024/04/10 09:33:34;;;;;;;11.97;2.73;;;;;;;;;;5247010;27;20504;-77
2024/04/10 09:36:01;;;;;;;7.93;2.10;;;;;;;;;;5246238;27;20821;-73
2024/04/10 09:38:29;;;;;;;18.00;4.60;;;;;;;;;;5246060;27;20452;-76
2024/04/10 09:41:05;;;;;;;10.17;2.73;;;;;;;;;;5245223;27;20456;-73
2024/04/10 09:43:31;;;;;;;4.63;2.30;;;;;;;;;;5249801;27;21077;-76
2024/04/10 09:45:58;;;;;;;17.50;2.67;;;;;;;;;;5253262;27;20550;-74
2024/04/10 09:48:28;;;;;;;7.57;2.90;;;;;;;;;;5244933;27;20468;-77
2024/04/10 09:50:57;;;;;;;7.00;2.60;;;;;;;;;;5241965;27;20567;-73
2024/04/10 09:53:23;;;;;;;9.93;3.13;;;;;;;;;;5242144;27;20476;-74
2024/04/10 09:55:49;;;;;;;12.53;3.00;;;;;;;;;;5247936;27;20870;-75
2024/04/10 09:58:15;;;;;;;8.20;3.03;;;;;;;;;;5246792;27;20840;-73
2024/04/10 10:00:42;;;;;;;5.90;2.90;;;;;;;;;;5244526;27;20939;-74
2024/04/10 10:03:11;;;;;;;10.40;3.00;;;;;;;;;;5244855;27;20455;-74
2024/04/10 10:05:38;;;;;;;15.33;3.23;;;;;;;;;;5249432;27;20523;-73
2024/04/10 10:08:04;;;;;;;11.70;2.70;;;;;;;;;;5266078;27;20469;-73
2024/04/10 10:10:30;;;;;;;13.03;2.73;;;;;;;;;;5211417;27;20817;-74
2024/04/10 10:13:22;;;;;;;7.77;3.00;;;;;;;;;;5239430;27;20483;-72
2024/04/10 10:15:55;;;;;;;11.10;2.83;;;;;;;;;;5245095;27;20483;-74
2024/04/10 10:18:25;;;;;;;7.13;2.73;;;;;;;;;;5242440;27;20524;-73
2024/04/10 10:21:00;;;;;;;10.33;2.63;;;;;;;;;;5242283;27;20476;-75
2024/04/10 10:23:26;;;;;;;4.97;2.63;;;;;;;;;;5241746;27;20518;-72
2024/04/10 10:25:52;;;;;;;6.67;2.77;;;;;;;;;;5242419;27;20471;-72
2024/04/10 10:28:18;;;;;;;8.50;2.60;;;;;;;;;;5242806;27;20463;-73
2024/04/10 10:30:44;;;;;;;9.97;2.60;;;;;;;;;;5240712;27;20591;-72
2024/04/10 10:33:10;;;;;;;14.80;3.00;;;;;;;;;;5242729;27;20456;-71
2024/04/10 10:35:36;;;;;;;8.30;2.80;;;;;;;;;;5244226;27;20532;-74
2024/04/10 10:38:04;;;;;;;14.10;3.13;;;;;;;;;;5245709;27;20472;-73
2024/04/10 10:40:31;;;;;;;9.67;2.50;;;;;;;;;;5240496;27;20532;-72
2024/04/10 10:43:01;;;;;;;10.77;2.50;;;;;;;;;;5242213;27;20670;-73
2024/04/10 10:45:27;;;;;;;7.50;2.67;;;;;;;;;;5241579;27;20460;-73
2024/04/10 10:47:53;;;;;;;9.90;2.80;;;;;;;;;;5267364;27;20555;-73
2024/04/10 10:50:19;;;;;;;7.27;2.90;;;;;;;;;;5242005;27;20475;-73
2024/04/10 10:52:46;;;;;;;16.70;4.27;;;;;;;;;;5241967;27;20855;-71
2024/04/10 10:55:15;;;;;;;14.10;3.83;;;;;;;;;;5242254;27;20472;-72
2024/04/10 10:57:41;;;;;;;19.43;4.70;;;;;;;;;;5242768;27;20534;-71
2024/04/10 11:00:12;;;;;;;11.10;2.60;;;;;;;;;;5236826;27;20531;-74
2024/04/10 11:02:38;;;;;;;8.60;2.20;;;;;;;;;;5241976;27;20543;-71
2024/04/10 11:05:07;;;;;;;2.63;1.90;;;;;;;;;;5241275;27;20472;-71
2024/04/10 11:07:33;;;;;;;12.00;2.60;;;;;;;;;;5241566;27;20994;-73
2024/04/10 11:10:05;;;;;;;6.37;2.13;;;;;;;;;;5244458;27;20515;-72
2024/04/10 11:12:31;;;;;;;7.93;2.27;;;;;;;;;;5244707;27;20475;-71
2024/04/10 11:15:05;;;;;;;10.03;2.87;;;;;;;;;;5244615;27;20472;-73
2024/04/10 11:17:31;;;;;;;7.23;2.73;;;;;;;;;;5244119;27;20475;-75
2024/04/10 11:19:57;;;;;;;9.30;2.27;;;;;;;;;;5244814;27;20471;-70
2024/04/10 11:22:25;;;;;;;14.80;3.17;;;;;;;;;;5244901;27;20587;-71
2024/04/10 11:24:50;;;;;;;7.77;2.27;;;;;;;;;;5244679;27;20467;-72
2024/04/10 11:27:18;;;;;;;7.40;2.43;;;;;;;;;;5243557;27;20459;-72
2024/04/10 11:29:44;;;;;;;3.17;1.93;;;;;;;;;;5243941;27;20475;-71
2024/04/10 11:32:10;;;;;;;7.90;2.40;;;;;;;;;;5244443;27;20802;-71
2024/04/10 11:34:36;;;;;;;4.87;2.30;;;;;;;;;;5243635;27;20472;-73
2024/04/10 11:37:02;;;;;;;4.73;2.20;;;;;;;;;;5244925;27;21007;-73
2024/04/10 11:39:28;;;;;;;5.50;2.10;;;;;;;;;;5244904;27;20475;-76
2024/04/10 11:41:56;;;;;;;8.37;3.00;;;;;;;;;;5248035;27;20912;-77
2024/04/10 11:44:25;;;;;;;6.50;2.53;;;;;;;;;;5247171;27;20487;-72
2024/04/10 11:46:51;;;;;;;11.30;2.93;;;;;;;;;;5244440;27;20471;-74
2024/04/10 11:49:18;;;;;;;9.73;2.53;;;;;;;;;;5236818;27;20528;-73
2024/04/10 11:51:43;;;;;;;4.80;1.90;;;;;;;;;;5244728;27;20456;-74
2024/04/10 11:54:09;;;;;;;5.63;2.20;;;;;;;;;;5244655;27;20524;-73
2024/04/10 11:56:35;;;;;;;7.53;2.37;;;;;;;;;;5230384;27;20556;-73
2024/04/10 11:59:01;;;;;;;4.67;2.07;;;;;;;;;;5243239;27;20460;-72
2024/04/10 12:01:27;;;;;;;6.27;2.67;;;;;;;;;;5242461;27;20520;-73
2024/04/10 12:03:53;;;;;;;7.70;2.97;;;;;;;;;;5243807;27;20467;-73
2024/04/10 12:06:19;;;;;;;5.77;2.77;;;;;;;;;;5242909;27;20499;-74
2024/04/10 12:08:45;;;;;;;6.57;2.10;;;;;;;;;;5244679;27;20521;-73
2024/04/10 12:11:11;;;;;;;10.20;2.50;;;;;;;;;;5244634;27;20468;-74
2024/04/10 12:13:40;;;;;;;3.57;2.00;;;;;;;;;;5244134;27;20556;-74
2024/04/10 12:16:07;;;;;;;10.27;2.37;;;;;;;;;;5244008;27;20576;-75
2024/04/10 12:18:33;;;;;;;8.33;2.17;;;;;;;;;;5244612;27;20464;-74
2024/04/10 12:20:59;;;;;;;8.73;2.67;;;;;;;;;;5241541;27;20487;-74
2024/04/10 12:23:26;;;;;;;7.00;2.70;;;;;;;;;;5244689;27;20519;-72
2024/04/10 12:25:52;;;;;;;6.57;2.73;;;;;;;;;;5245016;27;20479;-75
2024/04/10 12:28:18;;;;;;;6.13;2.40;;;;;;;;;;5243837;27;20841;-74
2024/04/10 12:30:44;;;;;;;10.60;2.00;;;;;;;;;;5269095;27;20544;-74
2024/04/10 12:33:10;;;;;;;3.97;2.20;;;;;;;;;;5244056;27;20819;-74
2024/04/10 12:38:20;;;;;;;9.80;2.23;;;;;;;;;;5244173;27;20543;-73
2024/04/10 12:40:58;;;;;;;6.63;2.20;;;;;;;;;;5244312;27;20447;-73
2024/04/10 12:43:24;;;;;;;4.50;1.70;;;;;;;;;;5243728;27;20523;-73
2024/04/10 12:45:50;;;;;;;9.23;2.50;;;;;;;;;;5247253;27;20472;-73
2024/04/10 12:48:16;;;;;;;8.43;2.10;;;;;;;;;;5258532;27;20504;-75
2024/04/10 12:50:42;;;;;;;8.40;2.20;;;;;;;;;;5257582;27;20639;-74
2024/04/10 12:53:08;;;;;;;7.20;2.73;;;;;;;;;;5271778;27;20522;-75
2024/04/10 12:55:34;;;;;;;4.43;2.60;;;;;;;;;;5244252;27;20527;-73
2024/04/10 12:58:00;;;;;;;6.23;2.30;;;;;;;;;;5244754;27;20451;-78
2024/04/10 13:00:26;;;;;;;8.20;2.93;;;;;;;;;;5244393;27;20516;-74
2024/04/10 13:02:54;;;;;;;6.23;2.80;;;;;;;;;;5262273;27;20943;-72
2024/04/10 13:05:20;;;;;;;9.80;3.07;;;;;;;;;;5242905;27;20588;-73
2024/04/10 13:07:46;;;;;;;9.87;2.93;;;;;;;;;;5245004;27;21024;-75
2024/04/10 13:10:12;;;;;;;9.43;2.50;;;;;;;;;;5244234;27;20448;-74
2024/04/10 13:12:38;;;;;;;10.40;2.60;;;;;;;;;;5244306;27;20502;-74
2024/04/10 13:15:04;;;;;;;4.40;2.27;;;;;;;;;;5270953;27;20479;-73
2024/04/10 13:17:30;;;;;;;10.00;2.33;;;;;;;;;;5277258;27;20459;-73
2024/04/10 13:19:56;;;;;;;9.10;2.23;;;;;;;;;;5247747;27;20513;-72
2024/04/10 13:22:22;;;;;;;7.90;2.30;;;;;;;;;;5244104;27;20594;-75
2024/04/10 13:24:48;;;;;;;9.40;2.40;;;;;;;;;;5269705;27;21011;-73
2024/04/10 13:27:15;;;;;;;7.90;2.30;;;;;;;;;;5248640;27;20543;-74
2024/04/10 13:29:41;;;;;;;7.70;2.60;;;;;;;;;;5249180;27;20522;-74
2024/04/10 13:32:08;;;;;;;7.80;2.30;;;;;;;;;;5246398;27;20467;-74
2024/04/10 13:34:34;;;;;;;7.70;3.00;;;;;;;;;;5248273;27;20443;-73
2024/04/10 13:37:00;;;;;;;6.77;2.63;;;;;;;;;;5248919;27;20511;-74
2024/04/10 13:39:26;;;;;;;8.80;3.10;;;;;;;;;;5248237;27;20979;-73
2024/04/10 13:41:52;;;;;;;4.87;2.20;;;;;;;;;;5247164;27;20864;-74
2024/04/10 13:44:18;;;;;;;8.80;2.57;;;;;;;;;;5243950;27;20838;-75
2024/04/10 13:46:44;;;;;;;6.93;2.27;;;;;;;;;;5259888;21;20564;-74
2024/04/10 13:49:14;;;;;;;9.30;2.87;;;;;;;;;;5238310;27;20648;-73
2024/04/10 13:53:27;;;;;;;7.70;2.57;;;;;;;;;;5471357;26;20558;-74
2024/04/10 13:56:03;;;;;;;16.33;2.80;;;;;;;;;;5395951;26;20593;-73
2024/04/10 13:58:30;;;;;;;4.27;2.23;;;;;;;;;;5364279;26;20590;-74
2024/04/10 14:00:56;;;;;;;3.13;2.00;;;;;;;;;;5363636;26;20466;-74
2024/04/10 14:03:22;;;;;;;12.77;2.80;;;;;;;;;;5362650;26;20443;-73
2024/04/10 14:05:48;;;;;;;4.43;2.20;;;;;;;;;;5368322;26;20519;-74
2024/04/10 14:08:17;;;;;;;6.87;2.43;;;;;;;;;;5374009;26;20523;-74
2024/04/10 14:10:43;;;;;;;8.17;2.80;;;;;;;;;;5393230;26;20476;-76
2024/04/10 14:13:08;;;;;;;5.03;2.53;;;;;;;;;;5384995;26;20789;-75
2024/04/10 14:15:34;;;;;;;8.53;2.80;;;;;;;;;;5376652;26;20461;-76
2024/04/10 14:18:00;;;;;;;7.00;3.00;;;;;;;;;;5399742;26;20599;-74
2024/04/10 14:20:26;;;;;;;4.27;2.20;;;;;;;;;;5390639;26;20453;-77
2024/04/10 14:22:52;;;;;;;8.97;3.03;;;;;;;;;;5388405;26;20580;-76
2024/04/10 14:25:18;;;;;;;12.27;3.23;;;;;;;;;;5394609;26;20468;-74
2024/04/10 14:27:49;;;;;;;5.60;2.03;;;;;;;;;;5392063;26;20730;-75
2024/04/10 14:30:15;;;;;;;5.90;2.20;;;;;;;;;;5387576;26;21063;-76
2024/04/10 14:32:40;;;;;;;3.90;2.20;;;;;;;;;;5396554;26;20445;-75
2024/04/10 14:35:07;;;;;;;3.77;2.83;;;;;;;;;;5398531;26;20517;-75
2024/04/10 14:37:33;;;;;;;6.10;2.23;;;;;;;;;;5388680;26;21087;-75
2024/04/10 14:39:59;;;;;;;6.30;2.37;;;;;;;;;;5391996;26;20469;-77
2024/04/10 14:42:24;;;;;;;6.43;2.30;;;;;;;;;;5389925;26;21179;-76
2024/04/10 14:44:50;;;;;;;6.00;2.27;;;;;;;;;;5395228;26;20533;-75
2024/04/10 14:47:16;;;;;;;11.97;2.50;;;;;;;;;;5413763;26;20526;-76
2024/04/10 14:49:44;;;;;;;6.10;2.40;;;;;;;;;;5395260;26;20529;-77
2024/04/10 14:52:11;;;;;;;10.93;3.37;;;;;;;;;;5393211;26;20533;-76
2024/04/10 14:54:37;;;;;;;11.63;2.23;;;;;;;;;;5386782;26;20522;-75
2024/04/10 14:57:03;;;;;;;6.83;2.87;;;;;;;;;;5397375;26;20453;-76
2024/04/10 14:59:29;;;;;;;10.50;3.33;;;;;;;;;;5398133;26;20525;-76
2024/04/10 15:01:55;;;;;;;3.87;2.13;;;;;;;;;;5392638;26;20467;-74
2024/04/10 15:04:23;;;;;;;4.03;2.20;;;;;;;;;;5383728;26;20984;-74
2024/04/10 15:06:49;;;;;;;6.83;2.30;;;;;;;;;;5378972;26;21057;-75
2024/04/10 15:09:15;;;;;;;8.93;2.80;;;;;;;;;;5381003;26;20525;-74
2024/04/10 15:11:41;;;;;;;6.30;2.30;;;;;;;;;;5380606;26;20506;-74
2024/04/10 15:14:07;;;;;;;5.67;2.30;;;;;;;;;;5366606;26;20875;-77
2024/04/10 15:16:33;;;;;;;5.43;1.80;;;;;;;;;;5378519;26;21361;-79
2024/04/10 15:18:59;;;;;;;10.17;2.33;;;;;;;;;;5388477;26;20591;-78
2024/04/10 15:21:25;;;;;;;3.03;1.70;;;;;;;;;;5389084;26;20929;-78
2024/04/10 15:23:51;;;;;;;5.47;2.07;;;;;;;;;;5386119;26;20984;-77
2024/04/10 15:26:17;;;;;;;9.93;2.00;;;;;;;;;;5377757;26;20823;-77
2024/04/10 15:28:44;;;;;;;6.27;2.10;;;;;;;;;;5403628;26;20483;-77
2024/04/10 15:31:10;;;;;;;5.33;1.87;;;;;;;;;;5383866;26;20454;-77
2024/04/10 15:33:38;;;;;;;4.53;2.70;;;;;;;;;;5380163;26;21015;-77
2024/04/10 15:36:08;;;;;;;7.63;2.17;;;;;;;;;;5389110;26;20526;-77
2024/04/10 15:38:35;;;;;;;3.80;2.00;;;;;;;;;;5376638;26;20537;-77
2024/04/10 15:41:02;;;;;;;8.60;1.90;;;;;;;;;;5383443;26;20517;-77
2024/04/10 15:43:29;;;;;;;5.10;1.60;;;;;;;;;;5379699;26;20921;-79
2024/04/10 15:45:58;;;;;;;6.67;2.17;;;;;;;;;;5383119;26;21048;-78
2024/04/10 15:48:25;;;;;;;9.97;2.50;;;;;;;;;;5380209;26;20474;-77
2024/04/10 15:50:51;;;;;;;4.33;2.07;;;;;;;;;;5380848;26;20510;-77
2024/04/10 15:53:18;;;;;;;6.80;2.00;;;;;;;;;;5381186;26;20458;-77
2024/04/10 15:55:44;;;;;;;4.73;1.70;;;;;;;;;;5385084;26;20568;-77
2024/04/10 15:58:10;;;;;;;3.37;2.00;;;;;;;;;;5386914;26;20463;-77
2024/04/10 16:00:36;;;;;;;6.53;1.57;;;;;;;;;;5381592;26;21127;-77
2024/04/10 16:03:02;;;;;;;5.80;3.40;;;;;;;;;;5380636;26;20519;-76
2024/04/10 16:05:36;;;;;;;3.83;1.70;;;;;;;;;;5380930;26;20466;-77
2024/04/10 16:08:04;;;;;;;10.53;2.53;;;;;;;;;;5381876;26;20466;-77
2024/04/10 16:10:35;;;;;;;3.90;1.70;;;;;;;;;;5383633;26;20454;-77
2024/04/10 16:13:02;;;;;;;7.63;2.00;;;;;;;;;;5384262;26;20984;-77
2024/04/10 16:15:28;;;;;;;3.70;1.40;;;;;;;;;;5381375;26;20464;-78
2024/04/10 16:17:54;;;;;;;3.63;1.80;;;;;;;;;;5383243;26;21004;-77
2024/04/10 16:20:26;;;;;;;1.97;1.77;;;;;;;;;;5373658;26;20522;-77
2024/04/10 16:22:52;;;;;;;7.03;1.90;;;;;;;;;;5381992;26;20470;-76
2024/04/10 16:25:20;;;;;;;4.40;1.80;;;;;;;;;;5383445;26;20458;-77
2024/04/10 16:27:46;;;;;;;3.37;1.87;;;;;;;;;;5382785;26;21008;-77
2024/04/10 16:30:12;;;;;;;4.27;1.73;;;;;;;;;;5384351;26;20481;-77
2024/04/10 16:32:38;;;;;;;10.13;2.30;;;;;;;;;;5380191;26;21067;-77
2024/04/10 16:35:04;;;;;;;2.53;1.37;;;;;;;;;;5345852;26;20471;-77
2024/04/10 16:37:30;;;;;;;8.77;2.03;;;;;;;;;;5347337;26;20511;-77
2024/04/10 16:39:56;;;;;;;4.20;2.10;;;;;;;;;;5349071;26;20503;-77
2024/04/10 16:42:23;;;;;;;6.23;2.03;;;;;;;;;;5354443;26;20454;-77
2024/04/10 16:44:50;;;;;;;7.20;2.00;;;;;;;;;;5351457;26;21065;-77
2024/04/10 16:47:15;;;;;;;6.57;1.60;;;;;;;;;;5357035;26;20443;-78
2024/04/10 16:49:41;;;;;;;4.50;1.40;;;;;;;;;;5354712;26;20531;-74
2024/04/10 16:52:07;;;;;;;2.67;1.47;;;;;;;;;;5356552;26;20490;-77
2024/04/10 16:54:33;;;;;;;4.10;1.60;;;;;;;;;;5360987;26;20436;-76
2024/04/10 16:56:59;;;;;;;4.70;1.90;;;;;;;;;;5347819;26;21005;-77
2024/04/10 16:59:25;;;;;;;4.93;1.80;;;;;;;;;;5353734;26;20502;-77
2024/04/10 17:01:53;;;;;;;8.63;1.60;;;;;;;;;;5350598;26;20463;-77
2024/04/10 17:04:19;;;;;;;5.27;1.57;;;;;;;;;;5368779;26;20992;-77
2024/04/10 17:06:45;;;;;;;6.33;2.20;;;;;;;;;;5379189;26;20470;-77
2024/04/10 17:09:11;;;;;;;6.80;1.77;;;;;;;;;;5348694;26;20440;-78
2024/04/10 17:11:37;;;;;;;3.67;1.60;;;;;;;;;;5347900;26;20455;-77
2024/04/10 17:14:03;;;;;;;7.50;1.97;;;;;;;;;;5349803;26;20471;-77
2024/04/10 17:16:29;;;;;;;2.53;1.53;;;;;;;;;;5348090;26;20475;-77
2024/04/10 17:21:56;;;;;;;3.80;1.77;;;;;;;;;;5347329;26;20436;-77
2024/04/10 17:24:23;;;;;;;7.70;1.60;;;;;;;;;;5359868;26;20485;-77
2024/04/10 17:26:49;;;;;;;5.13;1.60;;;;;;;;;;5379368;26;20586;-77
2024/04/10 17:29:15;;;;;;;7.63;1.53;;;;;;;;;;5387537;26;20482;-77
2024/04/10 17:31:41;;;;;;;6.03;2.20;;;;;;;;;;5391627;26;20502;-77
2024/04/10 17:34:08;;;;;;;4.07;1.60;;;;;;;;;;5402948;26;20481;-77
2024/04/10 17:36:34;;;;;;;9.30;3.30;;;;;;;;;;5396297;26;20478;-77
2024/04/10 17:39:00;;;;;;;4.17;1.80;;;;;;;;;;5383503;26;21036;-76
2024/04/10 17:41:26;;;;;;;9.53;1.70;;;;;;;;;;5365424;26;20475;-77
2024/04/10 17:43:52;;;;;;;4.83;2.10;;;;;;;;;;5348095;26;20554;-77
2024/04/10 17:46:19;;;;;;;7.20;2.60;;;;;;;;;;5348561;26;20981;-77
2024/04/10 17:48:45;;;;;;;10.17;3.27;;;;;;;;;;5362203;26;20609;-77
2024/04/10 17:51:15;;;;;;;8.73;2.60;;;;;;;;;;5382195;26;20881;-77
2024/04/10 17:53:42;;;;;;;6.50;2.70;;;;;;;;;;5379980;26;20643;-77
2024/04/10 17:56:08;;;;;;;7.73;2.87;;;;;;;;;;5380402;26;20473;-77
2024/04/10 17:58:34;;;;;;;7.87;2.30;;;;;;;;;;5348764;26;20503;-77
2024/04/10 18:01:01;;;;;;;5.73;2.23;;;;;;;;;;5348406;26;20456;-77
2024/04/10 18:03:27;;;;;;;3.53;1.77;;;;;;;;;;5373319;26;20470;-78
2024/04/10 18:06:01;;;;;;;9.37;2.40;;;;;;;;;;5380737;26;20537;-77
2024/04/10 18:08:27;;;;;;;3.87;1.80;;;;;;;;;;5383033;26;20450;-77
2024/04/10 18:10:53;;;;;;;3.80;2.10;;;;;;;;;;5385146;26;20537;-77
2024/04/10 18:13:19;;;;;;;10.13;2.43;;;;;;;;;;5384131;26;20478;-77
2024/04/10 18:15:45;;;;;;;7.87;2.30;;;;;;;;;;5386181;26;20466;-77
2024/04/10 18:18:11;;;;;;;6.93;2.27;;;;;;;;;;5380654;26;20610;-77
2024/04/10 18:20:37;;;;;;;6.63;2.00;;;;;;;;;;5364397;26;20508;-78
2024/04/10 18:23:03;;;;;;;8.03;3.30;;;;;;;;;;5385830;26;20458;-77
2024/04/10 18:25:29;;;;;;;4.93;2.73;;;;;;;;;;5380928;26;21013;-77
2024/04/10 18:27:55;;;;;;;9.10;2.53;;;;;;;;;;5383508;26;20458;-77
2024/04/10 18:30:21;;;;;;;17.50;4.20;;;;;;;;;;5381403;26;20438;-77
2024/04/10 18:32:47;;;;;;;37.60;5.17;;;;;;;;;;5382557;26;20501;-77
2024/04/10 18:35:13;;;;;;;13.93;3.90;;;;;;;;;;5379211;26;20541;-77
2024/04/10 18:37:39;;;;;;;5.70;2.30;;;;;;;;;;5382174;26;20557;-77
2024/04/10 18:40:05;;;;;;;15.57;2.90;;;;;;;;;;5378860;26;20513;-77
2024/04/10 18:42:35;;;;;;;3.40;1.73;;;;;;;;;;5366522;26;20519;-78
2024/04/10 18:45:01;;;;;;;4.43;1.70;;;;;;;;;;5382498;26;20954;-77
2024/04/10 18:47:27;;;;;;;6.50;2.20;;;;;;;;;;5385883;26;20434;-78
2024/04/10 18:49:53;;;;;;;4.60;2.43;;;;;;;;;;5383578;26;20640;-77
2024/04/10 18:52:19;;;;;;;6.50;2.37;;;;;;;;;;5383835;26;20469;-77
2024/04/10 18:54:45;;;;;;;6.07;1.90;;;;;;;;;;5363887;26;20589;-77
2024/04/10 18:57:12;;;;;;;12.20;2.60;;;;;;;;;;5351643;26;20451;-78
2024/04/10 18:59:38;;;;;;;5.20;2.50;;;;;;;;;;5394894;26;20462;-78
2024/04/10 19:02:08;;;;;;;7.17;2.23;;;;;;;;;;5384547;26;20830;-78
2024/04/10 19:04:34;;;;;;;9.73;3.03;;;;;;;;;;5351328;26;20509;-77
2024/04/10 19:07:00;;;;;;;12.77;3.23;;;;;;;;;;5348920;26;20479;-78
2024/04/10 19:09:28;;;;;;;8.97;3.33;;;;;;;;;;5348697;26;20905;-77
2024/04/10 19:11:54;;;;;;;7.03;3.57;;;;;;;;;;5379154;26;20534;-77
2024/04/10 19:14:21;;;;;;;15.90;3.50;;;;;;;;;;5382779;26;21056;-78
2024/04/10 19:16:48;;;;;;;11.53;4.83;;;;;;;;;;5384088;26;20536;-77
2024/04/10 19:19:14;;;;;;;7.73;3.47;;;;;;;;;;5381670;26;20477;-78
2024/04/10 19:21:41;;;;;;;7.73;3.40;;;;;;;;;;5380888;26;20465;-77
2024/04/10 19:24:09;;;;;;;7.50;3.50;;;;;;;;;;5382339;26;20509;-77
2024/04/10 19:26:35;;;;;;;7.53;3.50;;;;;;;;;;5372738;26;20827;-77
2024/04/10 19:29:01;;;;;;;6.30;2.90;;;;;;;;;;5361611;26;20809;-77
2024/04/10 19:31:27;;;;;;;3.83;2.70;;;;;;;;;;5379782;26;20506;-77
2024/04/10 19:33:53;;;;;;;11.20;3.97;;;;;;;;;;5381330;26;20431;-77
2024/04/10 19:36:22;;;;;;;6.00;3.10;;;;;;;;;;5382643;26;20575;-77
2024/04/10 19:38:49;;;;;;;7.70;3.40;;;;;;;;;;5382419;26;20564;-77
2024/04/10 19:41:15;;;;;;;5.20;2.43;;;;;;;;;;5378425;26;20454;-77
2024/04/10 19:43:42;;;;;;;9.23;3.30;;;;;;;;;;5371087;26;20973;-78
2024/04/10 19:46:08;;;;;;;8.30;3.57;;;;;;;;;;5354573;26;20893;-77
2024/04/10 19:48:34;;;;;;;4.00;2.20;;;;;;;;;;5375597;26;20446;-77
2024/04/10 19:51:04;;;;;;;6.73;3.53;;;;;;;;;;5379468;26;20975;-76
2024/04/10 19:53:30;;;;;;;11.20;3.47;;;;;;;;;;5380594;26;20442;-78
2024/04/10 19:56:00;;;;;;;5.73;3.33;;;;;;;;;;5374360;26;20467;-78
2024/04/10 19:58:29;;;;;;;4.13;3.10;;;;;;;;;;5345746;26;20520;-77